sensor_id;sensor_type;location;lat;lon;timestamp;temperature;humidity
8832;DHT22;4452;50.756;4.472;2023-07-13T00:01:46;15.40;99.90
8832;DHT22;4452;50.756;4.472;2023-07-13T00:04:16;15.30;99.90
8832;DHT22;4452;50.756;4.472;2023-07-13T00:06:43;15.30;99.90
8832;DHT22;4452;50.756;4.472;2023-07-13T00:09:14;15.30;99.90
8832;DHT22;4452;50.756;4.472;2023-07-13T00:11:41;15.20;99.90
8832;DHT22;4452;50.756;4.472;2023-07-13T00:14:07;15.20;99.90
8832;DHT22;4452;50.756;4.472;2023-07-13T00:16:38;15.20;99.90
8832;DHT22;4452;50.756;4.472;2023-07-13T00:19:04;15.20;99.90
8832;DHT22;4452;50.756;4.472;2023-07-13T00:21:30;15.20;99.90
8832;DHT22;4452;50.756;4.472;2023-07-13T00:23:57;15.10;99.90
8832;DHT22;4452;50.756;4.472;2023-07-13T00:26:22;15.00;99.90
8832;DHT22;4452;50.756;4.472;2023-07-13T00:28:48;15.00;99.90
8832;DHT22;4452;50.756;4.472;2023-07-13T00:31:14;15.00;99.90
8832;DHT22;4452;50.756;4.472;2023-07-13T00:33:40;14.90;99.90
8832;DHT22;4452;50.756;4.472;2023-07-13T00:36:09;14.90;99.90
8832;DHT22;4452;50.756;4.472;2023-07-13T00:38:35;14.90;99.90
8832;DHT22;4452;50.756;4.472;2023-07-13T00:41:01;14.80;99.90
8832;DHT22;4452;50.756;4.472;2023-07-13T00:43:28;14.90;99.90
8832;DHT22;4452;50.756;4.472;2023-07-13T00:48:21;14.80;99.90
8832;DHT22;4452;50.756;4.472;2023-07-13T00:50:51;14.80;99.90
8832;DHT22;4452;50.756;4.472;2023-07-13T00:53:19;14.80;99.90
8832;DHT22;4452;50.756;4.472;2023-07-13T00:55:46;14.80;99.90
8832;DHT22;4452;50.756;4.472;2023-07-13T00:58:12;14.70;99.90
8832;DHT22;4452;50.756;4.472;2023-07-13T01:00:38;14.70;99.90
8832;DHT22;4452;50.756;4.472;2023-07-13T01:03:05;14.60;99.90
8832;DHT22;4452;50.756;4.472;2023-07-13T01:05:33;14.60;99.90
8832;DHT22;4452;50.756;4.472;2023-07-13T01:08:01;14.60;99.90
8832;DHT22;4452;50.756;4.472;2023-07-13T01:10:27;14.50;99.90
8832;DHT22;4452;50.756;4.472;2023-07-13T01:12:53;14.50;99.90
8832;DHT22;4452;50.756;4.472;2023-07-13T01:15:39;14.50;99.90
8832;DHT22;4452;50.756;4.472;2023-07-13T01:18:11;14.50;99.90
8832;DHT22;4452;50.756;4.472;2023-07-13T01:20:39;14.50;99.90
8832;DHT22;4452;50.756;4.472;2023-07-13T01:23:11;14.40;99.90
8832;DHT22;4452;50.756;4.472;2023-07-13T01:25:38;14.30;99.90
8832;DHT22;4452;50.756;4.472;2023-07-13T01:28:06;14.30;99.90
8832;DHT22;4452;50.756;4.472;2023-07-13T01:30:35;14.40;99.90
8832;DHT22;4452;50.756;4.472;2023-07-13T01:33:00;14.20;99.90
8832;DHT22;4452;50.756;4.472;2023-07-13T01:35:29;14.20;99.90
8832;DHT22;4452;50.756;4.472;2023-07-13T01:37:55;14.20;99.90
8832;DHT22;4452;50.756;4.472;2023-07-13T01:40:22;14.10;99.90
8832;DHT22;4452;50.756;4.472;2023-07-13T01:42:48;14.20;99.90
8832;DHT22;4452;50.756;4.472;2023-07-13T01:45:13;14.10;99.90
8832;DHT22;4452;50.756;4.472;2023-07-13T01:47:40;14.10;99.90
8832;DHT22;4452;50.756;4.472;2023-07-13T01:50:05;14.00;99.90
8832;DHT22;4452;50.756;4.472;2023-07-13T01:52:31;14.10;99.90
8832;DHT22;4452;50.756;4.472;2023-07-13T01:54:57;14.10;99.90
8832;DHT22;4452;50.756;4.472;2023-07-13T01:57:22;14.00;99.90
8832;DHT22;4452;50.756;4.472;2023-07-13T01:59:48;14.00;99.90
8832;DHT22;4452;50.756;4.472;2023-07-13T02:02:14;14.00;99.90
8832;DHT22;4452;50.756;4.472;2023-07-13T02:04:40;14.00;99.90
8832;DHT22;4452;50.756;4.472;2023-07-13T02:07:05;13.90;99.90
8832;DHT22;4452;50.756;4.472;2023-07-13T02:09:31;13.90;99.90
8832;DHT22;4452;50.756;4.472;2023-07-13T02:11:57;13.90;99.90
8832;DHT22;4452;50.756;4.472;2023-07-13T02:14:22;13.90;99.90
8832;DHT22;4452;50.756;4.472;2023-07-13T02:16:48;13.90;99.90
8832;DHT22;4452;50.756;4.472;2023-07-13T02:19:14;13.80;99.90
8832;DHT22;4452;50.756;4.472;2023-07-13T02:21:39;13.80;99.90
8832;DHT22;4452;50.756;4.472;2023-07-13T02:24:05;13.60;99.90
8832;DHT22;4452;50.756;4.472;2023-07-13T02:26:31;13.80;99.90
8832;DHT22;4452;50.756;4.472;2023-07-13T02:28:56;13.70;99.90
8832;DHT22;4452;50.756;4.472;2023-07-13T02:31:22;13.80;99.90
8832;DHT22;4452;50.756;4.472;2023-07-13T02:33:47;13.70;99.90
8832;DHT22;4452;50.756;4.472;2023-07-13T02:36:13;14.10;99.90
8832;DHT22;4452;50.756;4.472;2023-07-13T02:38:42;13.70;99.90
8832;DHT22;4452;50.756;4.472;2023-07-13T02:41:08;13.70;99.90
8832;DHT22;4452;50.756;4.472;2023-07-13T02:43:35;13.70;99.90
8832;DHT22;4452;50.756;4.472;2023-07-13T02:46:01;13.70;99.90
8832;DHT22;4452;50.756;4.472;2023-07-13T02:48:33;13.70;99.90
8832;DHT22;4452;50.756;4.472;2023-07-13T02:50:59;13.60;99.90
8832;DHT22;4452;50.756;4.472;2023-07-13T02:53:24;13.60;99.90
8832;DHT22;4452;50.756;4.472;2023-07-13T02:55:50;13.60;99.90
8832;DHT22;4452;50.756;4.472;2023-07-13T02:58:16;13.60;99.90
8832;DHT22;4452;50.756;4.472;2023-07-13T03:00:46;13.60;99.90
8832;DHT22;4452;50.756;4.472;2023-07-13T03:03:13;13.60;99.90
8832;DHT22;4452;50.756;4.472;2023-07-13T03:05:42;13.60;99.90
8832;DHT22;4452;50.756;4.472;2023-07-13T03:08:12;13.60;99.90
8832;DHT22;4452;50.756;4.472;2023-07-13T03:10:38;13.60;99.90
8832;DHT22;4452;50.756;4.472;2023-07-13T03:13:05;13.60;99.90
8832;DHT22;4452;50.756;4.472;2023-07-13T03:15:30;13.60;99.90
8832;DHT22;4452;50.756;4.472;2023-07-13T03:17:56;13.60;99.90
8832;DHT22;4452;50.756;4.472;2023-07-13T03:20:23;13.60;99.90
8832;DHT22;4452;50.756;4.472;2023-07-13T03:22:48;13.50;99.90
8832;DHT22;4452;50.756;4.472;2023-07-13T03:25:14;13.60;99.90
8832;DHT22;4452;50.756;4.472;2023-07-13T03:27:39;13.50;99.90
8832;DHT22;4452;50.756;4.472;2023-07-13T03:30:06;13.50;99.90
8832;DHT22;4452;50.756;4.472;2023-07-13T03:32:32;13.50;99.90
8832;DHT22;4452;50.756;4.472;2023-07-13T03:34:57;13.50;99.90
8832;DHT22;4452;50.756;4.472;2023-07-13T03:37:23;13.50;99.90
8832;DHT22;4452;50.756;4.472;2023-07-13T03:39:49;13.60;99.90
8832;DHT22;4452;50.756;4.472;2023-07-13T03:42:15;13.50;99.90
8832;DHT22;4452;50.756;4.472;2023-07-13T03:44:42;13.50;99.90
8832;DHT22;4452;50.756;4.472;2023-07-13T03:47:11;13.60;99.90
8832;DHT22;4452;50.756;4.472;2023-07-13T03:49:37;13.60;99.90
8832;DHT22;4452;50.756;4.472;2023-07-13T03:52:03;13.60;99.90
8832;DHT22;4452;50.756;4.472;2023-07-13T03:54:29;13.60;99.90
8832;DHT22;4452;50.756;4.472;2023-07-13T03:56:55;13.60;99.90
8832;DHT22;4452;50.756;4.472;2023-07-13T03:59:20;13.60;99.90
8832;DHT22;4452;50.756;4.472;2023-07-13T04:01:46;14.20;99.90
8832;DHT22;4452;50.756;4.472;2023-07-13T04:04:12;13.80;99.90
8832;DHT22;4452;50.756;4.472;2023-07-13T04:06:38;13.80;99.90
8832;DHT22;4452;50.756;4.472;2023-07-13T04:09:04;13.90;99.90
8832;DHT22;4452;50.756;4.472;2023-07-13T04:11:35;14.00;99.90
8832;DHT22;4452;50.756;4.472;2023-07-13T04:14:04;14.00;99.90
8832;DHT22;4452;50.756;4.472;2023-07-13T04:16:29;14.00;99.90
8832;DHT22;4452;50.756;4.472;2023-07-13T04:18:56;14.00;99.90
8832;DHT22;4452;50.756;4.472;2023-07-13T04:21:26;14.00;99.90
8832;DHT22;4452;50.756;4.472;2023-07-13T04:23:53;14.10;99.90
8832;DHT22;4452;50.756;4.472;2023-07-13T04:26:19;14.20;99.90
8832;DHT22;4452;50.756;4.472;2023-07-13T04:28:47;14.20;99.90
8832;DHT22;4452;50.756;4.472;2023-07-13T04:31:13;14.20;99.90
8832;DHT22;4452;50.756;4.472;2023-07-13T04:33:39;14.80;99.90
8832;DHT22;4452;50.756;4.472;2023-07-13T04:36:05;14.30;99.90
8832;DHT22;4452;50.756;4.472;2023-07-13T04:38:32;14.40;99.90
8832;DHT22;4452;50.756;4.472;2023-07-13T04:41:03;14.40;99.90
8832;DHT22;4452;50.756;4.472;2023-07-13T04:43:30;14.50;99.90
8832;DHT22;4452;50.756;4.472;2023-07-13T04:45:56;14.50;99.90
8832;DHT22;4452;50.756;4.472;2023-07-13T04:48:22;14.50;99.90
8832;DHT22;4452;50.756;4.472;2023-07-13T04:50:55;14.50;99.90
8832;DHT22;4452;50.756;4.472;2023-07-13T04:53:21;14.60;99.90
8832;DHT22;4452;50.756;4.472;2023-07-13T04:55:47;14.60;99.90
8832;DHT22;4452;50.756;4.472;2023-07-13T04:58:13;14.70;99.90
8832;DHT22;4452;50.756;4.472;2023-07-13T05:00:39;14.60;99.90
8832;DHT22;4452;50.756;4.472;2023-07-13T05:03:05;14.70;99.90
8832;DHT22;4452;50.756;4.472;2023-07-13T05:05:30;14.70;99.90
8832;DHT22;4452;50.756;4.472;2023-07-13T05:07:56;14.80;99.90
8832;DHT22;4452;50.756;4.472;2023-07-13T05:10:22;14.90;99.90
8832;DHT22;4452;50.756;4.472;2023-07-13T05:12:49;14.90;99.90
8832;DHT22;4452;50.756;4.472;2023-07-13T05:15:15;14.80;99.90
8832;DHT22;4452;50.756;4.472;2023-07-13T05:17:40;14.90;99.90
8832;DHT22;4452;50.756;4.472;2023-07-13T05:20:07;14.90;99.90
8832;DHT22;4452;50.756;4.472;2023-07-13T05:22:33;14.90;99.90
8832;DHT22;4452;50.756;4.472;2023-07-13T05:25:01;14.90;99.90
8832;DHT22;4452;50.756;4.472;2023-07-13T05:27:27;15.00;99.90
8832;DHT22;4452;50.756;4.472;2023-07-13T05:29:52;15.00;99.90
8832;DHT22;4452;50.756;4.472;2023-07-13T05:32:18;15.10;99.90
8832;DHT22;4452;50.756;4.472;2023-07-13T05:34:44;15.20;99.90
8832;DHT22;4452;50.756;4.472;2023-07-13T05:37:10;15.10;99.90
8832;DHT22;4452;50.756;4.472;2023-07-13T05:39:35;15.20;99.90
8832;DHT22;4452;50.756;4.472;2023-07-13T05:42:02;15.30;99.90
8832;DHT22;4452;50.756;4.472;2023-07-13T05:44:28;15.30;99.90
8832;DHT22;4452;50.756;4.472;2023-07-13T05:46:53;15.30;99.90
8832;DHT22;4452;50.756;4.472;2023-07-13T05:49:21;15.30;99.90
8832;DHT22;4452;50.756;4.472;2023-07-13T05:51:46;15.40;99.90
8832;DHT22;4452;50.756;4.472;2023-07-13T05:54:12;15.40;99.90
8832;DHT22;4452;50.756;4.472;2023-07-13T05:56:38;15.50;99.90
8832;DHT22;4452;50.756;4.472;2023-07-13T05:59:04;15.40;99.90
8832;DHT22;4452;50.756;4.472;2023-07-13T06:01:31;15.50;99.90
8832;DHT22;4452;50.756;4.472;2023-07-13T06:03:57;15.50;99.90
8832;DHT22;4452;50.756;4.472;2023-07-13T06:06:22;15.60;99.90
8832;DHT22;4452;50.756;4.472;2023-07-13T06:08:48;15.60;99.90
8832;DHT22;4452;50.756;4.472;2023-07-13T06:11:18;15.70;99.90
8832;DHT22;4452;50.756;4.472;2023-07-13T06:13:44;15.90;99.90
8832;DHT22;4452;50.756;4.472;2023-07-13T06:16:10;15.70;99.90
8832;DHT22;4452;50.756;4.472;2023-07-13T06:18:37;15.80;99.90
8832;DHT22;4452;50.756;4.472;2023-07-13T06:21:07;15.80;99.90
8832;DHT22;4452;50.756;4.472;2023-07-13T06:23:33;15.80;99.90
8832;DHT22;4452;50.756;4.472;2023-07-13T06:25:59;15.80;99.90
8832;DHT22;4452;50.756;4.472;2023-07-13T06:28:24;15.90;99.90
8832;DHT22;4452;50.756;4.472;2023-07-13T06:30:50;16.10;99.90
8832;DHT22;4452;50.756;4.472;2023-07-13T06:33:16;16.10;99.90
8832;DHT22;4452;50.756;4.472;2023-07-13T06:35:42;16.00;99.90
8832;DHT22;4452;50.756;4.472;2023-07-13T06:38:08;16.20;99.90
8832;DHT22;4452;50.756;4.472;2023-07-13T06:40:33;16.30;99.90
8832;DHT22;4452;50.756;4.472;2023-07-13T06:42:59;16.20;99.90
8832;DHT22;4452;50.756;4.472;2023-07-13T06:45:24;16.20;99.90
8832;DHT22;4452;50.756;4.472;2023-07-13T06:47:50;16.30;99.90
8832;DHT22;4452;50.756;4.472;2023-07-13T06:50:16;16.30;99.90
8832;DHT22;4452;50.756;4.472;2023-07-13T06:52:41;16.40;99.90
8832;DHT22;4452;50.756;4.472;2023-07-13T06:55:07;16.60;99.90
8832;DHT22;4452;50.756;4.472;2023-07-13T06:57:33;16.50;99.90
8832;DHT22;4452;50.756;4.472;2023-07-13T06:59:59;16.70;99.90
8832;DHT22;4452;50.756;4.472;2023-07-13T07:02:24;16.50;99.90
8832;DHT22;4452;50.756;4.472;2023-07-13T07:04:50;16.50;99.90
8832;DHT22;4452;50.756;4.472;2023-07-13T07:07:16;16.60;99.90
8832;DHT22;4452;50.756;4.472;2023-07-13T07:09:41;16.60;99.90
8832;DHT22;4452;50.756;4.472;2023-07-13T07:12:07;16.70;99.90
8832;DHT22;4452;50.756;4.472;2023-07-13T07:14:33;16.80;99.90
8832;DHT22;4452;50.756;4.472;2023-07-13T07:16:59;16.80;99.90
8832;DHT22;4452;50.756;4.472;2023-07-13T07:19:25;16.80;99.90
8832;DHT22;4452;50.756;4.472;2023-07-13T07:21:51;17.00;99.90
8832;DHT22;4452;50.756;4.472;2023-07-13T07:24:17;17.10;99.90
8832;DHT22;4452;50.756;4.472;2023-07-13T07:26:42;17.10;99.90
8832;DHT22;4452;50.756;4.472;2023-07-13T07:29:08;17.00;99.90
8832;DHT22;4452;50.756;4.472;2023-07-13T07:31:33;17.10;99.90
8832;DHT22;4452;50.756;4.472;2023-07-13T07:33:59;17.20;99.90
8832;DHT22;4452;50.756;4.472;2023-07-13T07:36:25;17.20;99.90
8832;DHT22;4452;50.756;4.472;2023-07-13T07:38:51;17.20;99.90
8832;DHT22;4452;50.756;4.472;2023-07-13T07:41:16;17.30;99.90
8832;DHT22;4452;50.756;4.472;2023-07-13T07:43:42;17.50;99.90
8832;DHT22;4452;50.756;4.472;2023-07-13T07:46:08;17.50;99.90
8832;DHT22;4452;50.756;4.472;2023-07-13T07:48:33;17.50;99.90
8832;DHT22;4452;50.756;4.472;2023-07-13T07:50:59;17.50;99.90
8832;DHT22;4452;50.756;4.472;2023-07-13T07:53:24;17.40;99.90
8832;DHT22;4452;50.756;4.472;2023-07-13T07:55:50;17.40;99.90
8832;DHT22;4452;50.756;4.472;2023-07-13T07:58:16;17.50;99.90
8832;DHT22;4452;50.756;4.472;2023-07-13T08:00:42;17.40;99.90
8832;DHT22;4452;50.756;4.472;2023-07-13T08:03:08;17.50;99.90
8832;DHT22;4452;50.756;4.472;2023-07-13T08:05:35;17.70;99.90
8832;DHT22;4452;50.756;4.472;2023-07-13T08:08:01;17.40;99.90
8832;DHT22;4452;50.756;4.472;2023-07-13T08:10:27;17.30;99.90
8832;DHT22;4452;50.756;4.472;2023-07-13T08:12:52;17.20;99.90
8832;DHT22;4452;50.756;4.472;2023-07-13T08:15:18;17.40;99.90
8832;DHT22;4452;50.756;4.472;2023-07-13T08:17:47;17.40;99.90
8832;DHT22;4452;50.756;4.472;2023-07-13T08:20:13;17.30;99.90
8832;DHT22;4452;50.756;4.472;2023-07-13T08:22:40;17.40;99.90
8832;DHT22;4452;50.756;4.472;2023-07-13T08:25:06;17.70;99.90
8832;DHT22;4452;50.756;4.472;2023-07-13T08:27:33;17.90;99.90
8832;DHT22;4452;50.756;4.472;2023-07-13T08:29:58;17.90;99.90
8832;DHT22;4452;50.756;4.472;2023-07-13T08:32:24;18.10;99.90
8832;DHT22;4452;50.756;4.472;2023-07-13T08:34:50;18.80;99.90
8832;DHT22;4452;50.756;4.472;2023-07-13T08:37:17;18.60;99.90
8832;DHT22;4452;50.756;4.472;2023-07-13T08:39:43;18.90;99.90
8832;DHT22;4452;50.756;4.472;2023-07-13T08:45:08;18.90;99.90
8832;DHT22;4452;50.756;4.472;2023-07-13T08:47:45;19.40;99.90
8832;DHT22;4452;50.756;4.472;2023-07-13T08:50:14;19.80;99.90
8832;DHT22;4452;50.756;4.472;2023-07-13T08:52:42;19.30;99.90
8832;DHT22;4452;50.756;4.472;2023-07-13T08:55:20;19.30;99.90
8832;DHT22;4452;50.756;4.472;2023-07-13T08:57:50;19.80;99.90
8832;DHT22;4452;50.756;4.472;2023-07-13T09:00:18;19.60;99.90
8832;DHT22;4452;50.756;4.472;2023-07-13T09:02:57;19.60;99.90
8832;DHT22;4452;50.756;4.472;2023-07-13T09:05:38;19.60;99.90
8832;DHT22;4452;50.756;4.472;2023-07-13T09:11:00;19.80;99.90
8832;DHT22;4452;50.756;4.472;2023-07-13T09:14:47;19.60;99.90
8832;DHT22;4452;50.756;4.472;2023-07-13T09:16:54;19.70;99.90
8832;DHT22;4452;50.756;4.472;2023-07-13T09:19:28;19.70;99.90
8832;DHT22;4452;50.756;4.472;2023-07-13T09:21:56;19.80;99.90
8832;DHT22;4452;50.756;4.472;2023-07-13T09:27:36;19.60;99.90
8832;DHT22;4452;50.756;4.472;2023-07-13T09:32:51;19.60;99.90
8832;DHT22;4452;50.756;4.472;2023-07-13T09:35:26;19.80;99.90
8832;DHT22;4452;50.756;4.472;2023-07-13T09:38:02;20.40;99.90
8832;DHT22;4452;50.756;4.472;2023-07-13T09:43:06;20.00;99.90
8832;DHT22;4452;50.756;4.472;2023-07-13T09:45:34;19.90;99.90
8832;DHT22;4452;50.756;4.472;2023-07-13T09:48:10;19.60;99.90
8832;DHT22;4452;50.756;4.472;2023-07-13T09:50:36;20.00;99.90
8832;DHT22;4452;50.756;4.472;2023-07-13T09:53:02;19.90;99.90
8832;DHT22;4452;50.756;4.472;2023-07-13T09:55:38;20.40;99.90
8832;DHT22;4452;50.756;4.472;2023-07-13T10:00:41;20.90;99.90
8832;DHT22;4452;50.756;4.472;2023-07-13T10:05:45;20.40;99.90
8832;DHT22;4452;50.756;4.472;2023-07-13T10:08:24;20.50;99.90
8832;DHT22;4452;50.756;4.472;2023-07-13T10:11:02;21.20;99.90
8832;DHT22;4452;50.756;4.472;2023-07-13T10:13:36;20.60;99.90
8832;DHT22;4452;50.756;4.472;2023-07-13T10:16:04;20.20;99.90
8832;DHT22;4452;50.756;4.472;2023-07-13T10:18:48;20.80;99.90
8832;DHT22;4452;50.756;4.472;2023-07-13T10:21:22;20.90;99.90
8832;DHT22;4452;50.756;4.472;2023-07-13T10:23:55;20.70;99.90
8832;DHT22;4452;50.756;4.472;2023-07-13T10:26:32;20.40;99.90
8832;DHT22;4452;50.756;4.472;2023-07-13T10:29:04;20.80;99.90
8832;DHT22;4452;50.756;4.472;2023-07-13T10:31:31;20.60;99.90
8832;DHT22;4452;50.756;4.472;2023-07-13T10:33:57;20.80;99.90
8832;DHT22;4452;50.756;4.472;2023-07-13T10:36:40;20.30;99.90
8832;DHT22;4452;50.756;4.472;2023-07-13T10:39:24;20.40;99.90
8832;DHT22;4452;50.756;4.472;2023-07-13T10:41:59;20.70;99.90
8832;DHT22;4452;50.756;4.472;2023-07-13T10:44:29;20.90;99.90
8832;DHT22;4452;50.756;4.472;2023-07-13T10:47:00;20.70;99.90
8832;DHT22;4452;50.756;4.472;2023-07-13T10:49:31;20.70;99.90
8832;DHT22;4452;50.756;4.472;2023-07-13T10:51:58;20.80;99.90
8832;DHT22;4452;50.756;4.472;2023-07-13T10:54:32;21.10;99.90
8832;DHT22;4452;50.756;4.472;2023-07-13T10:57:21;21.20;99.90
8832;DHT22;4452;50.756;4.472;2023-07-13T11:02:35;21.10;99.90
8832;DHT22;4452;50.756;4.472;2023-07-13T11:08:32;21.00;99.90
8832;DHT22;4452;50.756;4.472;2023-07-13T11:10:58;20.90;99.90
8832;DHT22;4452;50.756;4.472;2023-07-13T11:21:22;21.10;99.90
8832;DHT22;4452;50.756;4.472;2023-07-13T11:23:54;21.50;99.90
8832;DHT22;4452;50.756;4.472;2023-07-13T11:29:38;21.30;99.90
8832;DHT22;4452;50.756;4.472;2023-07-13T11:32:25;21.40;99.90
8832;DHT22;4452;50.756;4.472;2023-07-13T11:34:55;22.30;99.90
8832;DHT22;4452;50.756;4.472;2023-07-13T11:37:21;22.30;99.90
8832;DHT22;4452;50.756;4.472;2023-07-13T11:39:50;22.10;99.90
8832;DHT22;4452;50.756;4.472;2023-07-13T11:42:18;22.00;99.90
8832;DHT22;4452;50.756;4.472;2023-07-13T11:44:50;22.00;99.90
8832;DHT22;4452;50.756;4.472;2023-07-13T11:47:21;21.30;99.90
8832;DHT22;4452;50.756;4.472;2023-07-13T11:49:53;21.90;99.90
8832;DHT22;4452;50.756;4.472;2023-07-13T11:52:24;21.50;99.90
8832;DHT22;4452;50.756;4.472;2023-07-13T11:54:54;21.60;99.90
8832;DHT22;4452;50.756;4.472;2023-07-13T12:00:02;20.90;99.90
8832;DHT22;4452;50.756;4.472;2023-07-13T12:02:44;20.90;99.90
8832;DHT22;4452;50.756;4.472;2023-07-13T12:05:15;20.90;99.90
8832;DHT22;4452;50.756;4.472;2023-07-13T12:07:41;21.10;99.90
8832;DHT22;4452;50.756;4.472;2023-07-13T12:10:23;21.50;99.90
8832;DHT22;4452;50.756;4.472;2023-07-13T12:12:58;21.30;99.90
8832;DHT22;4452;50.756;4.472;2023-07-13T12:15:37;21.00;99.90
8832;DHT22;4452;50.756;4.472;2023-07-13T12:18:15;21.40;99.90
8832;DHT22;4452;50.756;4.472;2023-07-13T12:20:41;21.40;99.90
8832;DHT22;4452;50.756;4.472;2023-07-13T12:23:25;21.50;99.90
8832;DHT22;4452;50.756;4.472;2023-07-13T12:25:52;21.40;99.90
8832;DHT22;4452;50.756;4.472;2023-07-13T12:28:57;21.60;99.90
8832;DHT22;4452;50.756;4.472;2023-07-13T12:31:26;21.80;99.90
8832;DHT22;4452;50.756;4.472;2023-07-13T12:34:10;22.20;99.90
8832;DHT22;4452;50.756;4.472;2023-07-13T12:36:45;22.00;99.90
8832;DHT22;4452;50.756;4.472;2023-07-13T12:39:33;22.10;99.90
8832;DHT22;4452;50.756;4.472;2023-07-13T12:47:20;21.30;99.90
8832;DHT22;4452;50.756;4.472;2023-07-13T12:49:54;21.20;99.90
8832;DHT22;4452;50.756;4.472;2023-07-13T12:52:32;21.40;99.90
8832;DHT22;4452;50.756;4.472;2023-07-13T12:55:11;20.90;99.90
8832;DHT22;4452;50.756;4.472;2023-07-13T12:57:46;20.60;99.90
8832;DHT22;4452;50.756;4.472;2023-07-13T13:00:37;20.20;99.90
8832;DHT22;4452;50.756;4.472;2023-07-13T13:03:31;19.80;99.90
8832;DHT22;4452;50.756;4.472;2023-07-13T13:06:04;19.40;99.90
8832;DHT22;4452;50.756;4.472;2023-07-13T13:08:32;19.40;99.90
8832;DHT22;4452;50.756;4.472;2023-07-13T13:10:58;19.80;99.90
8832;DHT22;4452;50.756;4.472;2023-07-13T13:13:24;20.30;99.90
8832;DHT22;4452;50.756;4.472;2023-07-13T13:15:50;20.60;99.90
8832;DHT22;4452;50.756;4.472;2023-07-13T13:18:23;21.90;99.90
8832;DHT22;4452;50.756;4.472;2023-07-13T13:20:50;22.90;99.90
8832;DHT22;4452;50.756;4.472;2023-07-13T13:23:18;22.70;99.90
8832;DHT22;4452;50.756;4.472;2023-07-13T13:25:46;21.90;99.90
8832;DHT22;4452;50.756;4.472;2023-07-13T13:28:18;21.70;99.90
8832;DHT22;4452;50.756;4.472;2023-07-13T13:30:45;21.80;99.90
8832;DHT22;4452;50.756;4.472;2023-07-13T13:33:12;22.00;99.90
8832;DHT22;4452;50.756;4.472;2023-07-13T13:35:39;22.50;99.90
8832;DHT22;4452;50.756;4.472;2023-07-13T13:38:16;23.20;99.90
8832;DHT22;4452;50.756;4.472;2023-07-13T13:40:43;23.30;99.90
8832;DHT22;4452;50.756;4.472;2023-07-13T13:43:22;23.40;99.90
8832;DHT22;4452;50.756;4.472;2023-07-13T13:45:52;23.80;99.90
8832;DHT22;4452;50.756;4.472;2023-07-13T13:48:23;23.40;99.90
8832;DHT22;4452;50.756;4.472;2023-07-13T13:50:56;23.90;99.90
8832;DHT22;4452;50.756;4.472;2023-07-13T13:53:22;23.30;99.90
8832;DHT22;4452;50.756;4.472;2023-07-13T13:55:49;23.20;99.90
8832;DHT22;4452;50.756;4.472;2023-07-13T13:58:15;23.50;99.90
8832;DHT22;4452;50.756;4.472;2023-07-13T14:00:40;23.70;99.90
8832;DHT22;4452;50.756;4.472;2023-07-13T14:03:18;24.00;99.90
8832;DHT22;4452;50.756;4.472;2023-07-13T14:05:44;23.20;99.90
8832;DHT22;4452;50.756;4.472;2023-07-13T14:08:19;23.30;99.90
8832;DHT22;4452;50.756;4.472;2023-07-13T14:10:48;22.60;99.90
8832;DHT22;4452;50.756;4.472;2023-07-13T14:13:20;22.70;99.90
8832;DHT22;4452;50.756;4.472;2023-07-13T14:15:46;22.80;99.90
8832;DHT22;4452;50.756;4.472;2023-07-13T14:18:13;22.60;99.90
8832;DHT22;4452;50.756;4.472;2023-07-13T14:20:43;22.10;99.90
8832;DHT22;4452;50.756;4.472;2023-07-13T14:23:10;22.10;99.90
8832;DHT22;4452;50.756;4.472;2023-07-13T14:25:35;21.80;99.90
8832;DHT22;4452;50.756;4.472;2023-07-13T14:28:31;21.90;99.90
8832;DHT22;4452;50.756;4.472;2023-07-13T14:30:56;21.70;99.90
8832;DHT22;4452;50.756;4.472;2023-07-13T14:33:22;21.60;99.90
8832;DHT22;4452;50.756;4.472;2023-07-13T14:35:49;21.40;99.90
8832;DHT22;4452;50.756;4.472;2023-07-13T14:38:19;21.00;99.90
8832;DHT22;4452;50.756;4.472;2023-07-13T14:40:45;20.80;99.90
8832;DHT22;4452;50.756;4.472;2023-07-13T14:43:12;20.50;99.90
8832;DHT22;4452;50.756;4.472;2023-07-13T14:45:41;20.30;99.90
8832;DHT22;4452;50.756;4.472;2023-07-13T14:48:15;20.20;99.90
8832;DHT22;4452;50.756;4.472;2023-07-13T14:50:41;20.20;99.90
8832;DHT22;4452;50.756;4.472;2023-07-13T14:53:10;20.00;99.90
8832;DHT22;4452;50.756;4.472;2023-07-13T14:55:36;20.30;99.90
8832;DHT22;4452;50.756;4.472;2023-07-13T14:58:02;20.00;99.90
8832;DHT22;4452;50.756;4.472;2023-07-13T15:00:28;20.20;99.90
8832;DHT22;4452;50.756;4.472;2023-07-13T15:02:56;20.10;99.90
8832;DHT22;4452;50.756;4.472;2023-07-13T15:05:31;19.90;99.90
8832;DHT22;4452;50.756;4.472;2023-07-13T15:07:58;19.80;99.90
8832;DHT22;4452;50.756;4.472;2023-07-13T15:10:27;19.60;99.90
8832;DHT22;4452;50.756;4.472;2023-07-13T15:13:12;19.70;99.90
8832;DHT22;4452;50.756;4.472;2023-07-13T15:15:40;19.60;99.90
8832;DHT22;4452;50.756;4.472;2023-07-13T15:18:10;19.40;99.90
8832;DHT22;4452;50.756;4.472;2023-07-13T15:20:36;19.00;99.90
8832;DHT22;4452;50.756;4.472;2023-07-13T15:23:02;18.80;99.90
8832;DHT22;4452;50.756;4.472;2023-07-13T15:25:29;18.80;99.90
8832;DHT22;4452;50.756;4.472;2023-07-13T15:27:56;18.60;99.90
8832;DHT22;4452;50.756;4.472;2023-07-13T15:30:27;18.80;99.90
8832;DHT22;4452;50.756;4.472;2023-07-13T15:32:56;19.80;99.90
8832;DHT22;4452;50.756;4.472;2023-07-13T15:35:25;20.00;99.90
8832;DHT22;4452;50.756;4.472;2023-07-13T15:37:51;20.30;99.90
8832;DHT22;4452;50.756;4.472;2023-07-13T15:40:17;19.90;99.90
8832;DHT22;4452;50.756;4.472;2023-07-13T15:42:44;20.00;99.90
8832;DHT22;4452;50.756;4.472;2023-07-13T15:45:22;20.10;99.90
8832;DHT22;4452;50.756;4.472;2023-07-13T15:47:49;20.40;99.90
8832;DHT22;4452;50.756;4.472;2023-07-13T15:50:23;21.60;99.90
8832;DHT22;4452;50.756;4.472;2023-07-13T15:52:54;22.40;99.90
8832;DHT22;4452;50.756;4.472;2023-07-13T15:55:21;22.90;99.90
8832;DHT22;4452;50.756;4.472;2023-07-13T15:57:51;23.50;99.90
8832;DHT22;4452;50.756;4.472;2023-07-13T16:00:23;23.50;99.90
8832;DHT22;4452;50.756;4.472;2023-07-13T16:02:50;24.10;99.90
8832;DHT22;4452;50.756;4.472;2023-07-13T16:05:17;24.60;99.90
8832;DHT22;4452;50.756;4.472;2023-07-13T16:07:45;23.80;99.90
8832;DHT22;4452;50.756;4.472;2023-07-13T16:10:17;23.20;99.90
8832;DHT22;4452;50.756;4.472;2023-07-13T16:12:45;22.90;99.90
8832;DHT22;4452;50.756;4.472;2023-07-13T16:15:14;21.90;99.90
8832;DHT22;4452;50.756;4.472;2023-07-13T16:17:40;21.80;99.90
8832;DHT22;4452;50.756;4.472;2023-07-13T16:20:07;21.60;99.90
8832;DHT22;4452;50.756;4.472;2023-07-13T16:22:36;22.00;99.90
8832;DHT22;4452;50.756;4.472;2023-07-13T16:25:04;23.20;99.90
8832;DHT22;4452;50.756;4.472;2023-07-13T16:27:37;24.40;99.90
8832;DHT22;4452;50.756;4.472;2023-07-13T16:30:15;23.80;99.90
8832;DHT22;4452;50.756;4.472;2023-07-13T16:32:43;23.10;99.90
8832;DHT22;4452;50.756;4.472;2023-07-13T16:35:09;22.70;99.90
8832;DHT22;4452;50.756;4.472;2023-07-13T16:37:37;22.60;99.90
8832;DHT22;4452;50.756;4.472;2023-07-13T16:42:46;22.70;99.90
8832;DHT22;4452;50.756;4.472;2023-07-13T16:45:12;22.20;99.90
8832;DHT22;4452;50.756;4.472;2023-07-13T16:47:37;22.00;99.90
8832;DHT22;4452;50.756;4.472;2023-07-13T16:50:20;22.10;99.90
8832;DHT22;4452;50.756;4.472;2023-07-13T16:52:47;22.00;99.90
8832;DHT22;4452;50.756;4.472;2023-07-13T16:55:16;21.70;99.90
8832;DHT22;4452;50.756;4.472;2023-07-13T16:57:44;21.90;99.90
8832;DHT22;4452;50.756;4.472;2023-07-13T17:00:24;21.60;99.90
8832;DHT22;4452;50.756;4.472;2023-07-13T17:02:57;21.70;99.90